Time;durP1;ratioP1;P1;durP2;ratioP2;P2;SDS_P1;SDS_P2;PMS_P1;PMS_P2;Temp;Humidity;BMP_temperature;BMP_pressure;BME280_temperature;BME280_humidity;BME280_pressure;Samples;Min_cycle;Max_cycle;Signal;HPM_P1;HPM_P2
2022/09/27 00:01:01;;;;;;;15.13;7.32;;;30.30;91.70;;;;;;5148296;27;20136;-54
2022/09/27 00:03:29;;;;;;;12.52;5.32;;;30.20;91.70;;;;;;5148350;27;20223;-53
2022/09/27 00:06:17;;;;;;;14.05;5.50;;;30.20;91.80;;;;;;5148233;27;20053;-60
2022/09/27 00:08:44;;;;;;;14.10;6.65;;;30.20;91.90;;;;;;5130665;27;20041;-54
2022/09/27 00:11:27;;;;;;;46.20;6.55;;;30.10;92.00;;;;;;5148144;27;20031;-58
2022/09/27 00:13:56;;;;;;;57.95;8.43;;;30.10;92.20;;;;;;5147811;27;20023;-55
2022/09/27 00:16:24;;;;;;;53.30;8.65;;;30.00;92.50;;;;;;5138017;27;20042;-53
2022/09/27 00:18:51;;;;;;;19.13;5.70;;;29.90;93.00;;;;;;5123182;28;20082;-53
2022/09/27 00:21:18;;;;;;;14.57;5.07;;;29.80;92.00;;;;;;5116410;28;20039;-54
2022/09/27 00:23:45;;;;;;;20.48;4.10;;;29.70;92.30;;;;;;5126929;28;20011;-53
2022/09/27 00:26:13;;;;;;;12.60;3.35;;;29.60;92.10;;;;;;5127257;28;20088;-49
2022/09/27 00:28:40;;;;;;;4.35;2.20;;;29.40;92.10;;;;;;5126073;28;20287;-49
2022/09/27 00:31:21;;;;;;;6.05;2.35;;;29.30;92.00;;;;;;5126915;28;20331;-52
2022/09/27 00:33:52;;;;;;;10.73;2.10;;;29.20;92.00;;;;;;5126524;28;20023;-51
2022/09/27 00:36:21;;;;;;;6.30;1.75;;;29.00;91.40;;;;;;5127061;28;20024;-50
2022/09/27 00:38:50;;;;;;;13.63;2.45;;;28.80;91.20;;;;;;5126474;28;20315;-49
2022/09/27 00:41:20;;;;;;;39.75;2.88;;;28.70;91.60;;;;;;5126495;28;20023;-54
2022/09/27 00:43:56;;;;;;;3.22;1.00;;;28.70;91.70;;;;;;5126560;28;20011;-52
2022/09/27 00:46:31;;;;;;;4.53;1.00;;;28.60;91.70;;;;;;5126563;28;20103;-50
2022/09/27 00:49:32;;;;;;;2.20;0.60;;;28.50;91.60;;;;;;5126390;28;20116;-52
2022/09/27 00:52:04;;;;;;;2.20;0.70;;;28.40;91.30;;;;;;5126740;28;20369;-53
2022/09/27 00:54:31;;;;;;;;;;;28.40;91.30;;;;;;5127042;28;20027;-49
2022/09/27 00:56:59;;;;;;;1.48;0.70;;;28.40;91.50;;;;;;5125365;28;19908;-51
2022/09/27 00:59:35;;;;;;;1.25;0.50;;;28.30;91.40;;;;;;5126347;28;20016;-61
2022/09/27 01:02:05;;;;;;;4.53;0.60;;;28.20;91.10;;;;;;5126376;28;20032;-50
2022/09/27 01:04:32;;;;;;;2.03;0.57;;;28.10;91.10;;;;;;5126225;28;20019;-50
2022/09/27 01:06:59;;;;;;;2.80;0.35;;;27.90;91.30;;;;;;5126180;28;20228;-53
2022/09/27 01:09:26;;;;;;;2.85;0.45;;;27.90;90.90;;;;;;5126484;28;20171;-62
2022/09/27 01:12:13;;;;;;;20.42;2.13;;;28.00;91.00;;;;;;5126114;28;20096;-56
2022/09/27 01:14:57;;;;;;;5.32;0.98;;;28.00;91.00;;;;;;5117190;28;20142;-54
2022/09/27 01:17:36;;;;;;;5.78;1.10;;;28.00;91.00;;;;;;5107967;28;20076;-57
2022/09/27 01:20:24;;;;;;;2.72;0.60;;;28.00;90.70;;;;;;5126259;28;20024;-56
2022/09/27 01:23:09;;;;;;;5.22;1.50;;;27.90;90.70;;;;;;5125942;28;20054;-55
2022/09/27 01:26:13;;;;;;;3.85;1.35;;;27.90;90.80;;;;;;5125976;28;20027;-55
2022/09/27 01:28:55;;;;;;;4.57;1.60;;;27.90;90.80;;;;;;5126285;28;20212;-54
2022/09/27 01:31:32;;;;;;;4.10;1.10;;;27.90;90.70;;;;;;5125443;28;20051;-63
2022/09/27 01:34:21;;;;;;;4.47;1.02;;;27.90;90.70;;;;;;5125529;28;20295;-55
2022/09/27 01:37:24;;;;;;;5.95;1.80;;;27.90;90.60;;;;;;5125813;28;20047;-56
2022/09/27 01:40:17;;;;;;;4.57;1.58;;;27.90;90.50;;;;;;5125996;28;20083;-56
2022/09/27 01:43:07;;;;;;;4.25;1.50;;;27.90;90.50;;;;;;5107479;28;20107;-61
2022/09/27 01:45:39;;;;;;;4.97;1.30;;;27.80;90.40;;;;;;5125656;28;20219;-55
2022/09/27 01:48:15;;;;;;;4.82;1.27;;;27.90;90.30;;;;;;5117772;28;20028;-55
2022/09/27 01:50:57;;;;;;;4.10;1.20;;;27.90;90.20;;;;;;5116723;28;20319;-51
2022/09/27 01:53:34;;;;;;;2.28;1.25;;;27.90;90.40;;;;;;5110394;28;20036;-57
2022/09/27 01:56:06;;;;;;;2.60;1.00;;;27.90;90.70;;;;;;5104512;28;20185;-52
2022/09/27 01:59:04;;;;;;;2.55;0.93;;;28.00;90.60;;;;;;5107493;28;20365;-53
2022/09/27 02:01:34;;;;;;;2.70;0.85;;;28.00;90.60;;;;;;5095257;28;20074;-51
2022/09/27 02:04:04;;;;;;;1.77;1.02;;;28.00;90.50;;;;;;5125170;28;20039;-56
2022/09/27 02:06:37;;;;;;;2.17;0.60;;;27.90;90.50;;;;;;5122138;28;20026;-55
2022/09/27 02:09:16;;;;;;;2.10;0.90;;;27.80;90.50;;;;;;5125589;28;20062;-52
2022/09/27 02:11:48;;;;;;;2.00;0.82;;;27.80;90.60;;;;;;5122229;28;20020;-52
2022/09/27 02:14:23;;;;;;;1.75;0.80;;;27.80;90.60;;;;;;5096324;28;20098;-52
2022/09/27 02:17:10;;;;;;;1.52;0.60;;;27.80;90.70;;;;;;5124991;28;20028;-53
2022/09/27 02:20:02;;;;;;;2.15;0.82;;;27.80;90.80;;;;;;5113282;28;20023;-52
2022/09/27 02:22:37;;;;;;;5.25;0.50;;;27.80;90.80;;;;;;5125175;28;20054;-52
2022/09/27 02:25:12;;;;;;;0.93;0.63;;;27.80;90.80;;;;;;5122808;28;20028;-51
2022/09/27 02:28:11;;;;;;;2.67;1.00;;;27.80;90.90;;;;;;5113263;28;20020;-53
2022/09/27 02:30:38;;;;;;;3.13;0.93;;;27.80;91.00;;;;;;5105842;28;20111;-51
2022/09/27 02:33:04;;;;;;;2.78;0.90;;;27.80;91.10;;;;;;5124738;28;20015;-52
2022/09/27 02:35:35;;;;;;;4.75;1.20;;;27.80;90.80;;;;;;5123179;28;20023;-51
2022/09/27 02:38:05;;;;;;;2.05;0.98;;;27.80;90.80;;;;;;5123895;28;20316;-54
2022/09/27 02:40:34;;;;;;;2.78;0.70;;;27.80;90.80;;;;;;5123853;28;20015;-58
2022/09/27 02:43:04;;;;;;;4.30;0.82;;;27.80;90.80;;;;;;5124580;28;20282;-53
2022/09/27 02:45:47;;;;;;;1.25;0.65;;;27.70;90.60;;;;;;5124523;28;20035;-55
2022/09/27 02:48:26;;;;;;;5.53;1.35;;;27.70;90.60;;;;;;5116708;28;20036;-54
2022/09/27 02:51:07;;;;;;;3.72;0.82;;;27.70;90.40;;;;;;5124317;28;20027;-54
2022/09/27 02:54:06;;;;;;;1.60;0.60;;;27.70;90.70;;;;;;5119353;28;20043;-53
2022/09/27 02:57:01;;;;;;;1.40;0.50;;;27.70;90.70;;;;;;5119037;28;20020;-55
2022/09/27 02:59:54;;;;;;;3.90;0.60;;;27.70;90.70;;;;;;5124539;28;20034;-57
2022/09/27 03:02:49;;;;;;;1.90;0.38;;;27.60;90.60;;;;;;5122563;28;20031;-50
2022/09/27 03:05:39;;;;;;;1.58;0.50;;;27.60;90.70;;;;;;5112815;28;20279;-52
2022/09/27 03:08:07;;;;;;;5.85;0.52;;;27.60;90.50;;;;;;5104009;28;20027;-53
2022/09/27 03:10:33;;;;;;;1.60;0.40;;;27.70;90.60;;;;;;5104482;28;20063;-51
2022/09/27 03:13:00;;;;;;;1.52;0.38;;;27.70;90.60;;;;;;5106595;28;20277;-53
2022/09/27 03:15:26;;;;;;;2.88;0.40;;;27.70;90.40;;;;;;5113289;28;20024;-54
2022/09/27 03:17:53;;;;;;;3.33;0.55;;;27.70;90.40;;;;;;5107269;28;20112;-53
2022/09/27 03:20:21;;;;;;;0.77;0.38;;;27.80;90.50;;;;;;5126864;28;20019;-57
2022/09/27 03:22:47;;;;;;;1.13;0.40;;;27.80;90.60;;;;;;5122244;28;20024;-54
2022/09/27 03:25:14;;;;;;;78.03;6.03;;;27.80;90.60;;;;;;5121336;28;20016;-52
2022/09/27 03:27:40;;;;;;;44.88;3.33;;;27.70;90.70;;;;;;5125616;28;20317;-53
2022/09/27 03:30:07;;;;;;;59.17;5.55;;;27.70;90.60;;;;;;5127770;28;20058;-53
2022/09/27 03:32:34;;;;;;;81.78;6.05;;;27.70;90.70;;;;;;5128184;28;20051;-53
2022/09/27 03:35:01;;;;;;;58.35;5.25;;;27.70;90.60;;;;;;5119924;28;20030;-52
2022/09/27 03:37:28;;;;;;;44.00;3.72;;;27.60;90.60;;;;;;5113348;28;20190;-52
2022/09/27 03:39:55;;;;;;;31.30;3.53;;;27.70;90.70;;;;;;5107916;28;20020;-53
2022/09/27 03:42:21;;;;;;;16.55;2.33;;;27.70;90.60;;;;;;5107746;28;20036;-53
2022/09/27 03:44:50;;;;;;;13.43;1.60;;;27.60;90.60;;;;;;5107934;28;20066;-53
2022/09/27 03:47:16;;;;;;;15.07;1.40;;;27.60;90.60;;;;;;5107442;28;20078;-52
2022/09/27 03:49:43;;;;;;;11.20;1.15;;;27.70;90.70;;;;;;5107258;28;20212;-52
2022/09/27 03:52:09;;;;;;;4.75;1.00;;;27.70;90.80;;;;;;5107326;28;20034;-53
2022/09/27 03:54:36;;;;;;;6.70;1.55;;;27.70;90.90;;;;;;5107957;28;20028;-52
2022/09/27 03:57:03;;;;;;;7.18;1.50;;;27.70;91.10;;;;;;5118525;28;20020;-52
2022/09/27 03:59:30;;;;;;;2.88;0.93;;;27.70;91.10;;;;;;5107466;28;20213;-53
2022/09/27 04:01:56;;;;;;;5.97;1.45;;;27.70;91.00;;;;;;5107324;28;20172;-51
2022/09/27 04:04:23;;;;;;;2.58;1.17;;;27.70;91.10;;;;;;5107449;28;20020;-51
2022/09/27 04:06:50;;;;;;;3.75;1.10;;;27.70;91.30;;;;;;5107169;28;20032;-53
2022/09/27 04:09:18;;;;;;;3.30;0.90;;;27.80;91.40;;;;;;5107353;28;20365;-51
2022/09/27 04:11:44;;;;;;;3.30;1.05;;;27.80;91.40;;;;;;5107019;28;20032;-53
2022/09/27 04:14:11;;;;;;;4.88;1.40;;;27.70;91.40;;;;;;5107265;28;20016;-55
2022/09/27 04:16:41;;;;;;;3.30;0.93;;;27.70;91.40;;;;;;5107133;28;20113;-52
2022/09/27 04:19:08;;;;;;;2.30;0.90;;;27.70;91.40;;;;;;5106971;28;20031;-52
2022/09/27 04:21:35;;;;;;;3.20;0.80;;;27.70;91.50;;;;;;5106783;28;20016;-51
2022/09/27 04:24:01;;;;;;;3.28;0.90;;;27.60;91.50;;;;;;5106860;28;20032;-54
2022/09/27 04:26:28;;;;;;;3.60;0.90;;;27.60;91.60;;;;;;5106728;28;20031;-52
2022/09/27 04:28:54;;;;;;;1.73;0.50;;;27.60;91.50;;;;;;5106876;28;20015;-54
2022/09/27 04:31:21;;;;;;;5.00;0.70;;;27.60;91.50;;;;;;5106266;28;20075;-52
2022/09/27 04:33:48;;;;;;;2.65;0.65;;;27.60;91.50;;;;;;5106565;28;20316;-54
2022/09/27 04:36:26;;;;;;;10.93;1.23;;;27.60;91.40;;;;;;5106681;28;20059;-52
2022/09/27 04:38:59;;;;;;;3.20;0.85;;;27.60;91.30;;;;;;5106714;28;20373;-52
2022/09/27 04:41:27;;;;;;;3.97;0.70;;;27.60;91.40;;;;;;5106605;28;20040;-51
2022/09/27 04:43:55;;;;;;;4.63;0.68;;;27.60;91.50;;;;;;5106321;28;20365;-51
2022/09/27 04:46:21;;;;;;;4.85;0.70;;;27.60;91.50;;;;;;5106387;28;20059;-49
2022/09/27 04:48:48;;;;;;;3.08;0.52;;;27.60;91.50;;;;;;5106692;28;20154;-51
2022/09/27 04:51:16;;;;;;;5.18;0.60;;;27.60;91.40;;;;;;5106426;28;20028;-52
2022/09/27 04:53:47;;;;;;;6.05;1.00;;;27.60;91.30;;;;;;5106341;28;20051;-53
2022/09/27 04:56:14;;;;;;;12.27;1.20;;;27.60;91.40;;;;;;5106321;28;20316;-51
2022/09/27 04:58:41;;;;;;;30.45;3.28;;;27.60;91.40;;;;;;5106143;28;20047;-52
2022/09/27 05:01:08;;;;;;;35.05;3.05;;;27.50;91.50;;;;;;5106150;28;20028;-56
2022/09/27 05:03:35;;;;;;;77.82;6.32;;;27.50;91.60;;;;;;5105936;28;20081;-54
2022/09/27 05:06:01;;;;;;;51.13;4.82;;;27.40;91.60;;;;;;5106047;28;20095;-54
2022/09/27 05:08:28;;;;;;;37.90;3.33;;;27.40;91.40;;;;;;5105917;28;20046;-55
2022/09/27 05:10:55;;;;;;;37.97;3.13;;;27.50;91.50;;;;;;5106068;28;20221;-51
2022/09/27 05:13:22;;;;;;;33.33;3.15;;;27.50;91.60;;;;;;5105907;28;20073;-52
2022/09/27 05:15:48;;;;;;;20.35;2.28;;;27.50;91.60;;;;;;5106351;28;20012;-54
2022/09/27 05:18:16;;;;;;;20.25;1.85;;;27.40;91.60;;;;;;5105996;28;20092;-54
2022/09/27 05:20:43;;;;;;;7.25;1.17;;;27.40;91.50;;;;;;5106288;28;20208;-53
2022/09/27 05:23:10;;;;;;;6.25;1.45;;;27.40;91.50;;;;;;5105791;28;20039;-49
2022/09/27 05:25:36;;;;;;;7.72;1.05;;;27.40;91.60;;;;;;5105923;28;20236;-53
2022/09/27 05:28:04;;;;;;;3.67;0.90;;;27.40;91.70;;;;;;5105658;28;20043;-54
2022/09/27 05:30:30;;;;;;;5.78;0.93;;;27.40;91.60;;;;;;5105786;28;20085;-57
2022/09/27 05:32:57;;;;;;;5.93;0.77;;;27.40;91.70;;;;;;5105354;28;20036;-53
2022/09/27 05:35:23;;;;;;;4.45;0.80;;;27.40;91.80;;;;;;5105953;28;20015;-54
2022/09/27 05:37:55;;;;;;;6.05;0.90;;;27.30;91.70;;;;;;5105512;28;20032;-54
2022/09/27 05:40:23;;;;;;;7.50;1.05;;;27.30;91.70;;;;;;5105925;28;20024;-53
2022/09/27 05:42:52;;;;;;;5.95;1.05;;;27.30;91.70;;;;;;5086655;28;20032;-54
2022/09/27 05:45:20;;;;;;;4.72;0.70;;;27.30;91.70;;;;;;5105708;28;20095;-54
2022/09/27 05:47:54;;;;;;;3.45;0.80;;;27.30;91.70;;;;;;5105296;28;20044;-54
2022/09/27 05:50:21;;;;;;;3.15;0.55;;;27.30;91.80;;;;;;5105238;28;20032;-53
2022/09/27 05:52:48;;;;;;;3.38;0.85;;;27.30;91.90;;;;;;5124669;28;20038;-51
2022/09/27 05:55:15;;;;;;;3.15;0.90;;;27.30;91.90;;;;;;5107521;28;20204;-51
2022/09/27 05:57:42;;;;;;;2.17;1.00;;;27.30;91.90;;;;;;5125466;28;20053;-52
2022/09/27 06:00:09;;;;;;;4.07;1.20;;;27.30;91.90;;;;;;5125643;28;20351;-53
2022/09/27 06:02:35;;;;;;;2.08;0.80;;;27.30;91.90;;;;;;5125338;28;20031;-51
2022/09/27 06:05:02;;;;;;;4.32;1.00;;;27.30;91.90;;;;;;5125724;28;20338;-50
2022/09/27 06:07:31;;;;;;;8.02;1.20;;;27.30;91.90;;;;;;5125184;28;20030;-53
2022/09/27 06:09:57;;;;;;;4.68;1.20;;;27.30;92.00;;;;;;5125464;28;20028;-54
2022/09/27 06:12:24;;;;;;;4.88;0.80;;;27.30;92.00;;;;;;5125259;28;20092;-54
2022/09/27 06:14:50;;;;;;;4.03;0.90;;;27.30;92.00;;;;;;5125331;28;20015;-57
2022/09/27 06:17:17;;;;;;;4.75;0.88;;;27.30;92.00;;;;;;5106891;28;20411;-52
2022/09/27 06:19:44;;;;;;;3.42;0.80;;;27.20;92.00;;;;;;5125177;28;20242;-57
2022/09/27 06:22:10;;;;;;;4.28;0.80;;;27.20;92.00;;;;;;5124959;28;20106;-56
2022/09/27 06:24:37;;;;;;;5.80;0.70;;;27.20;91.90;;;;;;5125271;28;20024;-54
2022/09/27 06:27:03;;;;;;;2.85;0.60;;;27.20;91.90;;;;;;5124975;28;20043;-53
2022/09/27 06:29:34;;;;;;;3.45;0.77;;;27.20;91.80;;;;;;5125128;28;20036;-58
2022/09/27 06:32:01;;;;;;;3.55;0.80;;;27.20;91.80;;;;;;5103130;28;20048;-51
2022/09/27 06:34:27;;;;;;;17.35;1.50;;;27.20;91.80;;;;;;5104532;28;20095;-54
2022/09/27 06:36:56;;;;;;;5.82;1.00;;;27.10;91.60;;;;;;5104394;28;20032;-53
2022/09/27 06:39:22;;;;;;;3.10;0.70;;;27.20;91.70;;;;;;5104562;28;20311;-55
2022/09/27 06:41:53;;;;;;;5.10;0.65;;;27.10;91.60;;;;;;5103182;28;20346;-53
2022/09/27 06:44:19;;;;;;;3.85;0.85;;;27.10;91.60;;;;;;5104371;28;20023;-53
2022/09/27 06:46:46;;;;;;;3.53;0.70;;;27.10;91.70;;;;;;5104442;28;20032;-56
2022/09/27 06:49:12;;;;;;;6.00;0.77;;;27.10;91.60;;;;;;5104564;28;20023;-56
2022/09/27 06:51:39;;;;;;;4.47;0.63;;;27.10;91.70;;;;;;5104097;28;20024;-55
2022/09/27 06:54:05;;;;;;;4.68;0.77;;;27.10;91.60;;;;;;5103418;28;20039;-45
2022/09/27 06:56:32;;;;;;;5.45;0.50;;;27.10;91.60;;;;;;5104202;28;20220;-51
2022/09/27 07:01:44;;;;;;;2.95;0.75;;;27.00;91.50;;;;;;5104117;28;20142;-52
2022/09/27 07:04:12;;;;;;;8.23;0.82;;;27.00;91.50;;;;;;5104061;28;20033;-57
2022/09/27 07:06:38;;;;;;;4.93;1.00;;;27.00;91.50;;;;;;5103974;28;20032;-56
2022/09/27 07:09:05;;;;;;;3.65;0.88;;;26.90;91.60;;;;;;5104140;28;20020;-52
2022/09/27 07:11:37;;;;;;;7.47;1.25;;;27.00;91.50;;;;;;5104117;28;20032;-50
2022/09/27 07:14:05;;;;;;;4.00;0.80;;;26.90;91.60;;;;;;5104099;28;20063;-52
2022/09/27 07:16:33;;;;;;;4.90;1.10;;;27.00;91.60;;;;;;5103967;28;20270;-51
2022/09/27 07:19:00;;;;;;;3.60;0.80;;;26.90;91.50;;;;;;5103951;28;20024;-56
2022/09/27 07:21:26;;;;;;;4.45;1.02;;;27.00;91.50;;;;;;5103978;28;20019;-52
2022/09/27 07:23:53;;;;;;;6.82;1.10;;;26.90;91.50;;;;;;5103907;28;20024;-56
2022/09/27 07:26:19;;;;;;;6.95;1.38;;;26.90;91.70;;;;;;5103883;28;20039;-53
2022/09/27 07:28:46;;;;;;;5.65;1.30;;;26.90;91.70;;;;;;5103883;28;20045;-56
2022/09/27 07:31:13;;;;;;;2.38;0.90;;;26.90;91.70;;;;;;5112251;28;20040;-52
2022/09/27 07:33:39;;;;;;;7.00;0.88;;;26.90;91.70;;;;;;5124074;28;20027;-51
2022/09/27 07:36:07;;;;;;;4.22;1.02;;;26.90;91.80;;;;;;5124074;28;20031;-52
2022/09/27 07:38:34;;;;;;;4.13;0.93;;;26.90;91.70;;;;;;5124180;28;20030;-56
2022/09/27 07:41:11;;;;;;;2.72;0.90;;;26.90;91.60;;;;;;5124154;28;20035;-54
2022/09/27 07:43:37;;;;;;;4.13;1.02;;;26.90;91.60;;;;;;5124069;28;20027;-50
2022/09/27 07:46:04;;;;;;;9.40;1.08;;;26.80;91.50;;;;;;5124191;28;20209;-52
2022/09/27 07:48:30;;;;;;;2.90;0.80;;;26.90;91.50;;;;;;5123850;28;20027;-52
2022/09/27 07:50:57;;;;;;;4.78;0.80;;;26.80;91.40;;;;;;5124038;28;20051;-52
2022/09/27 07:53:23;;;;;;;3.78;0.80;;;26.80;91.40;;;;;;5124068;28;20324;-51
2022/09/27 07:55:54;;;;;;;2.47;0.80;;;26.80;91.50;;;;;;5124262;28;20298;-52
2022/09/27 07:58:21;;;;;;;9.18;1.10;;;26.90;91.60;;;;;;5124124;28;20312;-53
2022/09/27 08:00:47;;;;;;;7.15;1.20;;;26.90;91.60;;;;;;5124463;28;20023;-54
2022/09/27 08:03:16;;;;;;;5.68;0.93;;;26.80;91.60;;;;;;5123799;28;20039;-51
2022/09/27 08:05:46;;;;;;;5.38;1.05;;;26.90;91.70;;;;;;5126359;28;20035;-51
2022/09/27 08:08:14;;;;;;;7.75;1.10;;;26.90;91.70;;;;;;5127668;28;20100;-55
2022/09/27 08:10:43;;;;;;;4.90;1.33;;;26.80;91.70;;;;;;5127970;28;20028;-50
2022/09/27 08:13:11;;;;;;;7.25;1.13;;;26.80;91.90;;;;;;5127625;28;20028;-55
2022/09/27 08:15:40;;;;;;;3.97;1.00;;;26.80;91.90;;;;;;5127996;28;20082;-52
2022/09/27 08:18:10;;;;;;;6.85;1.20;;;26.80;92.10;;;;;;5127365;28;20034;-49
2022/09/27 08:20:37;;;;;;;11.88;1.38;;;26.80;92.00;;;;;;5127327;28;20046;-51
2022/09/27 08:23:03;;;;;;;12.15;1.00;;;26.80;91.90;;;;;;5127493;28;20027;-55
2022/09/27 08:25:30;;;;;;;8.27;1.05;;;26.70;91.90;;;;;;5127607;28;20059;-51
2022/09/27 08:27:59;;;;;;;3.85;0.90;;;26.70;91.90;;;;;;5127335;28;20312;-51
2022/09/27 08:30:27;;;;;;;5.85;1.30;;;26.70;91.90;;;;;;5127619;28;20023;-51
2022/09/27 08:32:58;;;;;;;3.92;1.10;;;26.70;91.90;;;;;;5127015;28;20039;-51
2022/09/27 08:35:26;;;;;;;10.57;1.27;;;26.80;92.00;;;;;;5127579;28;20016;-57
2022/09/27 08:38:01;;;;;;;5.50;1.08;;;26.80;92.00;;;;;;5127115;28;20081;-50
2022/09/27 08:40:53;;;;;;;5.00;1.33;;;26.70;92.00;;;;;;5127465;28;20204;-50
2022/09/27 08:43:41;;;;;;;10.30;1.50;;;26.70;92.00;;;;;;5126918;28;20062;-58
2022/09/27 08:46:40;;;;;;;3.55;1.15;;;26.70;92.10;;;;;;5126978;28;20023;-53
2022/09/27 08:49:18;;;;;;;5.15;1.10;;;26.70;92.10;;;;;;5126954;28;20315;-53
2022/09/27 08:51:47;;;;;;;3.72;1.05;;;26.70;92.10;;;;;;5126629;28;20065;-52
2022/09/27 08:54:21;;;;;;;5.65;0.98;;;26.70;92.10;;;;;;5126856;28;20063;-53
2022/09/27 08:56:48;;;;;;;7.20;1.10;;;26.70;92.10;;;;;;5126683;28;20012;-53
2022/09/27 08:59:20;;;;;;;5.68;1.35;;;26.70;92.10;;;;;;5126704;28;20032;-53
2022/09/27 09:01:50;;;;;;;;;;;26.70;92.20;;;;;;5126999;28;20208;-54
2022/09/27 09:04:48;;;;;;;6.03;0.90;;;26.60;92.10;;;;;;5126443;28;19903;-55
2022/09/27 09:07:15;;;;;;;6.63;1.10;;;26.60;92.20;;;;;;5107066;28;20035;-55
2022/09/27 09:09:52;;;;;;;7.00;1.20;;;26.60;92.20;;;;;;5126625;28;20032;-57
2022/09/27 09:12:46;;;;;;;8.10;1.20;;;26.60;92.10;;;;;;5126419;28;20395;-53
2022/09/27 09:15:12;;;;;;;5.10;1.45;;;26.60;92.10;;;;;;5126734;28;20072;-50
2022/09/27 09:18:16;;;;;;;4.35;1.02;;;26.60;92.10;;;;;;5125438;28;20016;-57
2022/09/27 09:21:22;;;;;;;6.32;1.10;;;26.60;92.10;;;;;;5126670;28;20050;-48
2022/09/27 09:24:22;;;;;;;6.25;1.30;;;26.50;92.10;;;;;;5125122;28;20114;-57
2022/09/27 09:27:16;;;;;;;3.33;0.98;;;26.60;92.20;;;;;;5126162;28;20039;-51
2022/09/27 09:29:49;;;;;;;4.43;1.10;;;26.60;92.20;;;;;;5126265;28;20200;-49
2022/09/27 09:32:27;;;;;;;5.38;1.20;;;26.50;92.10;;;;;;5125871;28;20059;-53
2022/09/27 09:35:00;;;;;;;5.55;1.15;;;26.50;92.00;;;;;;5126106;28;20069;-51
2022/09/27 09:37:50;;;;;;;8.68;1.08;;;26.50;92.10;;;;;;5125968;28;20076;-50
2022/09/27 09:40:39;;;;;;;4.68;0.90;;;26.50;92.10;;;;;;5112901;28;20229;-52
2022/09/27 09:43:27;;;;;;;5.40;1.02;;;26.50;92.10;;;;;;5125884;28;20031;-52
2022/09/27 09:46:06;;;;;;;5.72;1.20;;;26.50;92.10;;;;;;5124198;28;20356;-52
2022/09/27 09:49:20;;;;;;;4.50;1.15;;;26.40;92.00;;;;;;5125607;28;20031;-52
2022/09/27 09:51:54;;;;;;;6.55;1.10;;;26.40;92.00;;;;;;5023413;28;20029;-51
2022/09/27 09:54:36;;;;;;;4.70;1.00;;;26.40;92.00;;;;;;5119346;28;20044;-51
2022/09/27 09:57:32;;;;;;;7.60;0.93;;;26.40;92.00;;;;;;5124468;28;20082;-49
2022/09/27 10:00:04;;;;;;;5.40;0.88;;;26.40;92.00;;;;;;5078446;28;20618;-50
2022/09/27 10:02:35;;;;;;;;;;;26.40;92.10;;;;;;5125973;28;20023;-52
2022/09/27 10:05:03;;;;;;;3.05;0.82;;;26.40;92.10;;;;;;5125517;28;20076;-59
2022/09/27 10:07:33;;;;;;;6.50;1.00;;;26.40;92.10;;;;;;5125263;28;20020;-53
2022/09/27 10:10:01;;;;;;;5.03;0.98;;;26.40;92.20;;;;;;5125767;28;20359;-53
2022/09/27 10:12:28;;;;;;;6.43;1.25;;;26.40;92.20;;;;;;5123488;28;20310;-54
2022/09/27 10:14:58;;;;;;;8.35;1.30;;;26.40;92.30;;;;;;5117216;28;20077;-50
2022/09/27 10:17:33;;;;;;;6.00;1.25;;;26.40;92.30;;;;;;5125159;28;20097;-49
2022/09/27 10:20:03;;;;;;;9.30;1.50;;;26.40;92.30;;;;;;5125452;28;20019;-55
2022/09/27 10:22:44;;;;;;;6.50;1.20;;;26.40;92.30;;;;;;5125002;28;20024;-51
2022/09/27 10:25:11;;;;;;;8.60;1.90;;;26.40;92.40;;;;;;5125159;28;20045;-54
2022/09/27 10:27:51;;;;;;;6.05;1.30;;;26.40;92.30;;;;;;5124672;28;20094;-54
2022/09/27 10:30:37;;;;;;;5.22;1.83;;;26.40;92.60;;;;;;5125168;28;20108;-55
2022/09/27 10:33:22;;;;;;;9.35;2.03;;;26.40;92.30;;;;;;5125039;28;20059;-51
2022/09/27 10:35:49;;;;;;;13.05;1.92;;;26.40;92.30;;;;;;5125546;28;20099;-52
2022/09/27 10:38:16;;;;;;;12.48;2.08;;;26.40;92.30;;;;;;5124631;28;20031;-51
2022/09/27 10:40:43;;;;;;;8.95;1.58;;;26.30;92.30;;;;;;5125456;28;20019;-54
2022/09/27 10:43:32;;;;;;;7.78;1.75;;;26.30;92.40;;;;;;5124648;28;20087;-55
2022/09/27 10:46:26;;;;;;;10.00;1.95;;;26.30;92.50;;;;;;5117021;28;20035;-54
2022/09/27 10:49:25;;;;;;;9.48;2.75;;;26.30;92.60;;;;;;5124490;28;20076;-47
2022/09/27 10:52:05;;;;;;;9.73;3.20;;;26.30;92.60;;;;;;5124735;28;20046;-45
2022/09/27 10:54:35;;;;;;;9.63;3.15;;;26.30;92.50;;;;;;5124782;28;20022;-53
2022/09/27 10:57:13;;;;;;;7.70;3.67;;;26.30;92.50;;;;;;5124400;28;20320;-57
2022/09/27 10:59:44;;;;;;;10.05;3.70;;;26.30;92.50;;;;;;5125040;28;20023;-51
2022/09/27 11:02:28;;;;;;;10.55;3.45;;;26.30;92.50;;;;;;5124094;28;20088;-56
2022/09/27 11:05:15;;;;;;;9.15;3.90;;;26.30;92.40;;;;;;5124685;28;20015;-51
2022/09/27 11:07:56;;;;;;;10.50;3.75;;;26.30;92.50;;;;;;5124521;28;20351;-50
2022/09/27 11:10:30;;;;;;;9.18;3.88;;;26.30;92.50;;;;;;5124888;28;20263;-52
2022/09/27 11:13:16;;;;;;;7.82;3.45;;;26.30;92.50;;;;;;5124517;28;20063;-51
2022/09/27 11:16:12;;;;;;;16.58;3.78;;;26.30;92.70;;;;;;5125030;28;20031;-52
2022/09/27 11:18:57;;;;;;;16.45;3.25;;;26.30;92.40;;;;;;5124314;28;20028;-51
2022/09/27 11:21:34;;;;;;;12.70;2.50;;;26.30;92.20;;;;;;5124274;28;20028;-50
2022/09/27 11:24:11;;;;;;;10.88;2.60;;;26.30;92.30;;;;;;5106219;28;20066;-49
2022/09/27 11:26:53;;;;;;;8.38;2.30;;;26.40;92.30;;;;;;5124241;28;20019;-55
2022/09/27 11:29:44;;;;;;;5.78;2.40;;;26.30;92.60;;;;;;5124480;28;20057;-55
2022/09/27 11:32:35;;;;;;;9.02;2.30;;;26.30;92.70;;;;;;5124056;28;20043;-53
2022/09/27 11:35:05;;;;;;;3.50;1.90;;;26.40;92.70;;;;;;5124021;28;20072;-54
2022/09/27 11:38:06;;;;;;;5.20;1.95;;;26.40;92.70;;;;;;5124285;28;20079;-56
2022/09/27 11:41:02;;;;;;;6.43;1.50;;;26.40;92.70;;;;;;5091030;28;20331;-55
2022/09/27 11:43:31;;;;;;;6.07;1.85;;;26.40;92.80;;;;;;5127997;28;20079;-54
2022/09/27 11:46:04;;;;;;;7.50;2.08;;;26.40;92.90;;;;;;5127906;28;20361;-56
2022/09/27 11:48:51;;;;;;;5.80;1.63;;;26.40;93.00;;;;;;5126247;28;20024;-54
2022/09/27 11:51:39;;;;;;;8.70;1.50;;;26.40;92.80;;;;;;5126207;28;20028;-56
2022/09/27 11:54:27;;;;;;;3.92;1.60;;;26.40;92.70;;;;;;5126180;28;20078;-55
2022/09/27 11:57:00;;;;;;;3.40;1.58;;;26.40;92.90;;;;;;5126414;28;20042;-55
2022/09/27 11:59:55;;;;;;;6.05;1.40;;;26.40;92.80;;;;;;5126252;28;20300;-53
2022/09/27 12:02:33;;;;;;;5.80;1.00;;;26.40;92.50;;;;;;5126483;28;20058;-52
2022/09/27 12:05:24;;;;;;;6.28;1.30;;;26.40;92.40;;;;;;5127932;28;20015;-53
2022/09/27 12:08:05;;;;;;;5.47;1.48;;;26.40;92.30;;;;;;5127677;28;20096;-54
2022/09/27 12:10:33;;;;;;;4.43;1.30;;;26.40;92.20;;;;;;5127892;28;20027;-54
2022/09/27 12:13:00;;;;;;;4.38;1.33;;;26.40;92.20;;;;;;5127666;28;20375;-53
2022/09/27 12:15:32;;;;;;;5.28;1.10;;;26.40;92.20;;;;;;5127983;28;20020;-53
2022/09/27 12:18:17;;;;;;;;;;;26.50;92.30;;;;;;5127772;28;20031;-54
2022/09/27 12:20:44;;;;;;;6.75;1.63;;;26.50;92.30;;;;;;5127255;28;20194;-58
2022/09/27 12:23:22;;;;;;;2.90;1.23;;;26.50;92.50;;;;;;5127346;28;20031;-54
2022/09/27 12:25:54;;;;;;;12.32;1.73;;;26.50;92.70;;;;;;5127872;28;20039;-54
2022/09/27 12:28:26;;;;;;;8.25;1.98;;;26.50;92.50;;;;;;5127441;28;20076;-54
2022/09/27 12:31:07;;;;;;;5.38;1.63;;;26.60;92.70;;;;;;5127461;28;20046;-54
2022/09/27 12:34:02;;;;;;;90.95;6.07;;;26.60;92.70;;;;;;5127059;28;20034;-55
2022/09/27 12:36:43;;;;;;;49.15;3.75;;;26.60;92.80;;;;;;5075870;28;20034;-59
2022/09/27 12:39:45;;;;;;;9.85;2.38;;;26.60;92.90;;;;;;5108749;28;20024;-54
2022/09/27 12:42:24;;;;;;;10.05;2.08;;;26.60;92.90;;;;;;5126759;28;20095;-54
2022/09/27 12:44:51;;;;;;;13.68;2.35;;;26.60;93.00;;;;;;5127105;28;20026;-55
2022/09/27 12:47:26;;;;;;;53.33;5.10;;;26.70;93.10;;;;;;5127199;28;20313;-56
2022/09/27 12:50:05;;;;;;;12.23;2.10;;;26.70;93.20;;;;;;5127346;28;20024;-53
2022/09/27 12:52:40;;;;;;;4.35;1.60;;;26.70;92.90;;;;;;5127201;28;20039;-54
2022/09/27 12:55:10;;;;;;;11.38;2.13;;;26.70;92.90;;;;;;5108909;28;20307;-53
2022/09/27 12:58:00;;;;;;;10.23;2.33;;;26.80;93.00;;;;;;5127362;28;20329;-56
2022/09/27 13:00:33;;;;;;;8.38;2.25;;;26.80;92.90;;;;;;5127199;28;20084;-53
2022/09/27 13:03:35;;;;;;;4.43;1.98;;;26.80;93.00;;;;;;5127012;28;20028;-54
2022/09/27 13:06:55;;;;;;;13.98;2.03;;;26.90;93.00;;;;;;5122127;28;20058;-54
2022/09/27 13:10:25;;;;;;;14.43;2.60;;;26.90;93.30;;;;;;5024404;28;20053;-53
2022/09/27 13:12:53;;;;;;;20.23;3.63;;;26.90;93.30;;;;;;4966655;28;20063;-56
2022/09/27 13:15:33;;;;;;;13.52;2.72;;;26.90;93.30;;;;;;5127885;28;20019;-54
2022/09/27 13:18:04;;;;;;;4.93;1.70;;;26.90;93.30;;;;;;5109013;28;20032;-53
2022/09/27 13:20:38;;;;;;;6.18;1.48;;;26.90;93.10;;;;;;5127172;28;20031;-54
2022/09/27 13:23:19;;;;;;;5.38;1.73;;;26.90;93.10;;;;;;5127073;28;20319;-54
2022/09/27 13:25:55;;;;;;;8.93;2.40;;;26.90;93.10;;;;;;5127349;28;20036;-55